sensor_id;sensor_type;location;lat;lon;timestamp;P1;durP1;ratioP1;P2;durP2;ratioP2
14768;SDS011;7476;49.404;11.152;2022-12-05T00:01:21;26.67;;;16.50;;
14768;SDS011;7476;49.404;11.152;2022-12-05T00:03:50;27.23;;;15.97;;
14768;SDS011;7476;49.404;11.152;2022-12-05T00:06:18;23.80;;;16.33;;
14768;SDS011;7476;49.404;11.152;2022-12-05T00:08:46;25.90;;;16.83;;
14768;SDS011;7476;49.404;11.152;2022-12-05T00:11:15;22.43;;;16.17;;
14768;SDS011;7476;49.404;11.152;2022-12-05T00:13:44;26.93;;;17.20;;
14768;SDS011;7476;49.404;11.152;2022-12-05T00:16:12;26.47;;;17.70;;
14768;SDS011;7476;49.404;11.152;2022-12-05T00:18:41;25.43;;;16.80;;
14768;SDS011;7476;49.404;11.152;2022-12-05T00:21:12;24.53;;;16.10;;
14768;SDS011;7476;49.404;11.152;2022-12-05T00:23:40;29.40;;;18.13;;
14768;SDS011;7476;49.404;11.152;2022-12-05T00:26:07;25.67;;;16.90;;
14768;SDS011;7476;49.404;11.152;2022-12-05T00:28:34;25.03;;;16.90;;
14768;SDS011;7476;49.404;11.152;2022-12-05T00:31:01;25.63;;;17.80;;
14768;SDS011;7476;49.404;11.152;2022-12-05T00:33:28;28.47;;;17.93;;
14768;SDS011;7476;49.404;11.152;2022-12-05T00:36:01;25.40;;;17.23;;
14768;SDS011;7476;49.404;11.152;2022-12-05T00:38:28;27.17;;;17.50;;
14768;SDS011;7476;49.404;11.152;2022-12-05T00:40:55;26.73;;;17.10;;
14768;SDS011;7476;49.404;11.152;2022-12-05T00:43:22;28.53;;;17.27;;
14768;SDS011;7476;49.404;11.152;2022-12-05T00:45:48;27.00;;;17.27;;
14768;SDS011;7476;49.404;11.152;2022-12-05T00:48:15;31.47;;;18.97;;
14768;SDS011;7476;49.404;11.152;2022-12-05T00:50:42;33.50;;;16.57;;
14768;SDS011;7476;49.404;11.152;2022-12-05T00:53:10;27.03;;;17.03;;
14768;SDS011;7476;49.404;11.152;2022-12-05T00:55:36;27.67;;;17.83;;
14768;SDS011;7476;49.404;11.152;2022-12-05T00:58:03;26.27;;;17.50;;
14768;SDS011;7476;49.404;11.152;2022-12-05T01:00:30;26.23;;;17.33;;
14768;SDS011;7476;49.404;11.152;2022-12-05T01:02:56;27.70;;;18.17;;
14768;SDS011;7476;49.404;11.152;2022-12-05T01:05:24;27.30;;;18.00;;
14768;SDS011;7476;49.404;11.152;2022-12-05T01:07:50;26.53;;;18.03;;
14768;SDS011;7476;49.404;11.152;2022-12-05T01:10:18;29.27;;;17.77;;
14768;SDS011;7476;49.404;11.152;2022-12-05T01:12:45;26.30;;;17.57;;
14768;SDS011;7476;49.404;11.152;2022-12-05T01:15:12;30.70;;;18.07;;
14768;SDS011;7476;49.404;11.152;2022-12-05T01:17:38;27.60;;;17.90;;
14768;SDS011;7476;49.404;11.152;2022-12-05T01:20:06;27.00;;;17.70;;
14768;SDS011;7476;49.404;11.152;2022-12-05T01:22:33;28.97;;;18.63;;
14768;SDS011;7476;49.404;11.152;2022-12-05T01:25:00;27.27;;;17.70;;
14768;SDS011;7476;49.404;11.152;2022-12-05T01:27:28;29.10;;;18.70;;
14768;SDS011;7476;49.404;11.152;2022-12-05T01:29:55;28.47;;;18.10;;
14768;SDS011;7476;49.404;11.152;2022-12-05T01:32:23;29.93;;;18.33;;
14768;SDS011;7476;49.404;11.152;2022-12-05T01:34:49;29.57;;;18.10;;
14768;SDS011;7476;49.404;11.152;2022-12-05T01:37:16;27.73;;;18.00;;
14768;SDS011;7476;49.404;11.152;2022-12-05T01:39:43;31.60;;;19.60;;
14768;SDS011;7476;49.404;11.152;2022-12-05T01:42:10;27.03;;;17.63;;
14768;SDS011;7476;49.404;11.152;2022-12-05T01:47:30;26.67;;;17.43;;
14768;SDS011;7476;49.404;11.152;2022-12-05T01:50:00;30.20;;;18.60;;
14768;SDS011;7476;49.404;11.152;2022-12-05T01:52:28;28.63;;;18.97;;
14768;SDS011;7476;49.404;11.152;2022-12-05T01:54:57;27.90;;;18.33;;
14768;SDS011;7476;49.404;11.152;2022-12-05T01:57:27;32.17;;;18.73;;
14768;SDS011;7476;49.404;11.152;2022-12-05T01:59:54;32.47;;;19.03;;
14768;SDS011;7476;49.404;11.152;2022-12-05T02:02:26;29.77;;;18.57;;
14768;SDS011;7476;49.404;11.152;2022-12-05T02:04:56;34.57;;;20.80;;
14768;SDS011;7476;49.404;11.152;2022-12-05T02:07:27;30.87;;;19.10;;
14768;SDS011;7476;49.404;11.152;2022-12-05T02:09:55;31.63;;;19.10;;
14768;SDS011;7476;49.404;11.152;2022-12-05T02:12:22;29.77;;;18.23;;
14768;SDS011;7476;49.404;11.152;2022-12-05T02:14:52;29.67;;;18.23;;
14768;SDS011;7476;49.404;11.152;2022-12-05T02:17:35;34.20;;;18.13;;
14768;SDS011;7476;49.404;11.152;2022-12-05T02:20:13;26.73;;;18.40;;
14768;SDS011;7476;49.404;11.152;2022-12-05T02:22:56;30.60;;;18.17;;
14768;SDS011;7476;49.404;11.152;2022-12-05T02:29:05;24.70;;;16.63;;
14768;SDS011;7476;49.404;11.152;2022-12-05T02:31:52;28.10;;;17.30;;
14768;SDS011;7476;49.404;11.152;2022-12-05T02:34:30;25.43;;;16.07;;
14768;SDS011;7476;49.404;11.152;2022-12-05T02:37:01;27.40;;;17.20;;
14768;SDS011;7476;49.404;11.152;2022-12-05T02:39:34;26.33;;;16.73;;
14768;SDS011;7476;49.404;11.152;2022-12-05T02:42:08;23.80;;;15.53;;
14768;SDS011;7476;49.404;11.152;2022-12-05T02:44:42;23.90;;;15.83;;
14768;SDS011;7476;49.404;11.152;2022-12-05T02:47:14;25.57;;;15.53;;
14768;SDS011;7476;49.404;11.152;2022-12-05T02:49:45;23.93;;;16.37;;
14768;SDS011;7476;49.404;11.152;2022-12-05T02:52:14;23.00;;;15.87;;
14768;SDS011;7476;49.404;11.152;2022-12-05T02:54:42;23.07;;;15.70;;
14768;SDS011;7476;49.404;11.152;2022-12-05T02:57:13;26.87;;;16.03;;
14768;SDS011;7476;49.404;11.152;2022-12-05T02:59:41;22.30;;;14.90;;
14768;SDS011;7476;49.404;11.152;2022-12-05T03:02:19;21.63;;;15.07;;
14768;SDS011;7476;49.404;11.152;2022-12-05T03:04:50;18.40;;;13.87;;
14768;SDS011;7476;49.404;11.152;2022-12-05T03:07:17;20.63;;;13.30;;
14768;SDS011;7476;49.404;11.152;2022-12-05T03:09:46;18.07;;;12.77;;
14768;SDS011;7476;49.404;11.152;2022-12-05T03:12:17;19.90;;;12.33;;
14768;SDS011;7476;49.404;11.152;2022-12-05T03:14:49;16.70;;;12.10;;
14768;SDS011;7476;49.404;11.152;2022-12-05T03:17:20;17.43;;;12.53;;
14768;SDS011;7476;49.404;11.152;2022-12-05T03:19:52;15.77;;;11.50;;
14768;SDS011;7476;49.404;11.152;2022-12-05T03:22:23;17.50;;;11.37;;
14768;SDS011;7476;49.404;11.152;2022-12-05T03:24:55;14.47;;;10.70;;
14768;SDS011;7476;49.404;11.152;2022-12-05T03:27:24;13.53;;;10.90;;
14768;SDS011;7476;49.404;11.152;2022-12-05T03:29:54;14.67;;;10.70;;
14768;SDS011;7476;49.404;11.152;2022-12-05T03:32:28;16.63;;;10.33;;
14768;SDS011;7476;49.404;11.152;2022-12-05T03:35:03;12.53;;;10.07;;
14768;SDS011;7476;49.404;11.152;2022-12-05T03:37:38;14.53;;;10.37;;
14768;SDS011;7476;49.404;11.152;2022-12-05T03:40:12;16.30;;;10.33;;
14768;SDS011;7476;49.404;11.152;2022-12-05T03:42:48;13.43;;;9.63;;
14768;SDS011;7476;49.404;11.152;2022-12-05T03:45:21;13.57;;;10.23;;
14768;SDS011;7476;49.404;11.152;2022-12-05T03:47:55;13.90;;;9.50;;
14768;SDS011;7476;49.404;11.152;2022-12-05T03:50:29;12.70;;;9.33;;
14768;SDS011;7476;49.404;11.152;2022-12-05T03:52:58;12.03;;;8.73;;
14768;SDS011;7476;49.404;11.152;2022-12-05T03:55:29;12.73;;;10.13;;
14768;SDS011;7476;49.404;11.152;2022-12-05T03:57:59;11.33;;;8.60;;
14768;SDS011;7476;49.404;11.152;2022-12-05T04:00:30;11.10;;;8.70;;
14768;SDS011;7476;49.404;11.152;2022-12-05T04:03:03;13.10;;;9.30;;
14768;SDS011;7476;49.404;11.152;2022-12-05T04:05:34;11.63;;;8.57;;
14768;SDS011;7476;49.404;11.152;2022-12-05T04:08:07;10.50;;;8.13;;
14768;SDS011;7476;49.404;11.152;2022-12-05T04:10:38;11.30;;;7.83;;
14768;SDS011;7476;49.404;11.152;2022-12-05T04:13:14;11.53;;;8.83;;
14768;SDS011;7476;49.404;11.152;2022-12-05T04:15:44;9.63;;;7.83;;
14768;SDS011;7476;49.404;11.152;2022-12-05T04:18:33;12.10;;;7.47;;
14768;SDS011;7476;49.404;11.152;2022-12-05T04:21:02;12.60;;;7.67;;
14768;SDS011;7476;49.404;11.152;2022-12-05T04:23:48;10.93;;;7.77;;
14768;SDS011;7476;49.404;11.152;2022-12-05T04:26:37;10.10;;;7.40;;
14768;SDS011;7476;49.404;11.152;2022-12-05T04:29:10;11.70;;;7.73;;
14768;SDS011;7476;49.404;11.152;2022-12-05T04:31:44;11.77;;;7.63;;
14768;SDS011;7476;49.404;11.152;2022-12-05T04:34:17;12.87;;;8.20;;
14768;SDS011;7476;49.404;11.152;2022-12-05T04:36:49;12.37;;;7.57;;
14768;SDS011;7476;49.404;11.152;2022-12-05T04:39:22;12.03;;;8.07;;
14768;SDS011;7476;49.404;11.152;2022-12-05T04:41:52;10.67;;;7.73;;
14768;SDS011;7476;49.404;11.152;2022-12-05T04:44:23;11.67;;;7.90;;
14768;SDS011;7476;49.404;11.152;2022-12-05T04:46:53;9.27;;;7.10;;
14768;SDS011;7476;49.404;11.152;2022-12-05T04:49:23;10.80;;;7.63;;
14768;SDS011;7476;49.404;11.152;2022-12-05T04:51:53;10.73;;;7.17;;
14768;SDS011;7476;49.404;11.152;2022-12-05T04:54:27;10.93;;;7.80;;
14768;SDS011;7476;49.404;11.152;2022-12-05T04:56:58;9.73;;;7.47;;
14768;SDS011;7476;49.404;11.152;2022-12-05T04:59:30;12.63;;;7.43;;
14768;SDS011;7476;49.404;11.152;2022-12-05T05:01:59;10.80;;;7.47;;
14768;SDS011;7476;49.404;11.152;2022-12-05T05:04:34;11.13;;;8.17;;
14768;SDS011;7476;49.404;11.152;2022-12-05T05:07:04;10.90;;;7.30;;
14768;SDS011;7476;49.404;11.152;2022-12-05T05:09:31;10.87;;;7.37;;
14768;SDS011;7476;49.404;11.152;2022-12-05T05:11:59;12.37;;;7.60;;
14768;SDS011;7476;49.404;11.152;2022-12-05T05:14:26;10.23;;;7.30;;
14768;SDS011;7476;49.404;11.152;2022-12-05T05:16:52;9.43;;;7.07;;
14768;SDS011;7476;49.404;11.152;2022-12-05T05:19:19;9.40;;;7.40;;
14768;SDS011;7476;49.404;11.152;2022-12-05T05:21:47;9.63;;;7.37;;
14768;SDS011;7476;49.404;11.152;2022-12-05T05:24:14;8.67;;;7.10;;
14768;SDS011;7476;49.404;11.152;2022-12-05T05:26:42;9.87;;;7.37;;
14768;SDS011;7476;49.404;11.152;2022-12-05T05:29:10;10.13;;;7.07;;
14768;SDS011;7476;49.404;11.152;2022-12-05T05:31:37;10.10;;;7.53;;
14768;SDS011;7476;49.404;11.152;2022-12-05T05:34:06;10.13;;;7.20;;
14768;SDS011;7476;49.404;11.152;2022-12-05T05:36:33;9.43;;;6.87;;
14768;SDS011;7476;49.404;11.152;2022-12-05T05:39:03;10.47;;;7.27;;
14768;SDS011;7476;49.404;11.152;2022-12-05T05:41:32;11.03;;;7.47;;
14768;SDS011;7476;49.404;11.152;2022-12-05T05:44:00;8.87;;;6.43;;
14768;SDS011;7476;49.404;11.152;2022-12-05T05:46:28;11.93;;;7.50;;
14768;SDS011;7476;49.404;11.152;2022-12-05T05:48:57;8.80;;;7.30;;
14768;SDS011;7476;49.404;11.152;2022-12-05T05:51:24;8.53;;;6.67;;
14768;SDS011;7476;49.404;11.152;2022-12-05T05:53:53;9.50;;;7.20;;
14768;SDS011;7476;49.404;11.152;2022-12-05T05:56:21;10.10;;;7.37;;
14768;SDS011;7476;49.404;11.152;2022-12-05T05:58:53;11.33;;;6.77;;
14768;SDS011;7476;49.404;11.152;2022-12-05T06:01:21;11.03;;;7.27;;
14768;SDS011;7476;49.404;11.152;2022-12-05T06:03:48;10.17;;;7.40;;
14768;SDS011;7476;49.404;11.152;2022-12-05T06:06:15;10.50;;;7.27;;
14768;SDS011;7476;49.404;11.152;2022-12-05T06:08:42;13.53;;;8.80;;
14768;SDS011;7476;49.404;11.152;2022-12-05T06:11:10;12.50;;;8.20;;
14768;SDS011;7476;49.404;11.152;2022-12-05T06:13:39;12.37;;;7.97;;
14768;SDS011;7476;49.404;11.152;2022-12-05T06:16:07;12.33;;;8.87;;
14768;SDS011;7476;49.404;11.152;2022-12-05T06:18:36;13.37;;;9.10;;
14768;SDS011;7476;49.404;11.152;2022-12-05T06:21:03;15.43;;;8.83;;
14768;SDS011;7476;49.404;11.152;2022-12-05T06:23:32;13.57;;;8.97;;
14768;SDS011;7476;49.404;11.152;2022-12-05T06:26:00;13.00;;;8.40;;
14768;SDS011;7476;49.404;11.152;2022-12-05T06:28:28;14.17;;;8.37;;
14768;SDS011;7476;49.404;11.152;2022-12-05T06:30:56;13.40;;;8.47;;
14768;SDS011;7476;49.404;11.152;2022-12-05T06:33:23;13.40;;;8.27;;
14768;SDS011;7476;49.404;11.152;2022-12-05T06:35:59;14.83;;;8.40;;
14768;SDS011;7476;49.404;11.152;2022-12-05T06:38:27;16.57;;;9.77;;
14768;SDS011;7476;49.404;11.152;2022-12-05T06:40:54;12.90;;;8.33;;
14768;SDS011;7476;49.404;11.152;2022-12-05T06:43:20;14.50;;;8.47;;
14768;SDS011;7476;49.404;11.152;2022-12-05T06:45:48;17.40;;;9.53;;
14768;SDS011;7476;49.404;11.152;2022-12-05T06:48:17;20.73;;;11.33;;
14768;SDS011;7476;49.404;11.152;2022-12-05T06:50:47;16.43;;;10.17;;
14768;SDS011;7476;49.404;11.152;2022-12-05T06:53:14;15.87;;;8.90;;
14768;SDS011;7476;49.404;11.152;2022-12-05T06:55:41;16.60;;;9.00;;
14768;SDS011;7476;49.404;11.152;2022-12-05T06:58:07;15.27;;;8.90;;
14768;SDS011;7476;49.404;11.152;2022-12-05T07:00:34;16.97;;;9.53;;
14768;SDS011;7476;49.404;11.152;2022-12-05T07:03:20;16.53;;;9.20;;
14768;SDS011;7476;49.404;11.152;2022-12-05T07:05:46;14.80;;;8.77;;
14768;SDS011;7476;49.404;11.152;2022-12-05T07:08:13;15.37;;;8.90;;
14768;SDS011;7476;49.404;11.152;2022-12-05T07:10:39;14.40;;;8.73;;
14768;SDS011;7476;49.404;11.152;2022-12-05T07:13:06;16.90;;;9.47;;
14768;SDS011;7476;49.404;11.152;2022-12-05T07:15:33;17.73;;;9.90;;
14768;SDS011;7476;49.404;11.152;2022-12-05T07:17:59;15.30;;;9.27;;
14768;SDS011;7476;49.404;11.152;2022-12-05T07:20:27;16.13;;;9.80;;
14768;SDS011;7476;49.404;11.152;2022-12-05T07:22:54;15.03;;;9.00;;
14768;SDS011;7476;49.404;11.152;2022-12-05T07:25:21;16.43;;;8.83;;
14768;SDS011;7476;49.404;11.152;2022-12-05T07:27:48;13.47;;;8.50;;
14768;SDS011;7476;49.404;11.152;2022-12-05T07:30:15;15.40;;;8.73;;
14768;SDS011;7476;49.404;11.152;2022-12-05T07:32:42;15.80;;;9.20;;
14768;SDS011;7476;49.404;11.152;2022-12-05T07:35:08;14.50;;;9.10;;
14768;SDS011;7476;49.404;11.152;2022-12-05T07:37:36;15.30;;;9.90;;
14768;SDS011;7476;49.404;11.152;2022-12-05T07:40:04;16.73;;;9.40;;
14768;SDS011;7476;49.404;11.152;2022-12-05T07:42:32;15.60;;;9.20;;
14768;SDS011;7476;49.404;11.152;2022-12-05T07:44:59;17.40;;;9.40;;
14768;SDS011;7476;49.404;11.152;2022-12-05T07:47:28;16.27;;;9.07;;
14768;SDS011;7476;49.404;11.152;2022-12-05T07:49:54;16.00;;;9.27;;
14768;SDS011;7476;49.404;11.152;2022-12-05T07:52:21;14.97;;;9.20;;
14768;SDS011;7476;49.404;11.152;2022-12-05T07:54:49;17.40;;;8.93;;
14768;SDS011;7476;49.404;11.152;2022-12-05T07:57:16;16.80;;;9.20;;
14768;SDS011;7476;49.404;11.152;2022-12-05T07:59:43;14.17;;;8.67;;
14768;SDS011;7476;49.404;11.152;2022-12-05T08:02:09;14.90;;;9.17;;
14768;SDS011;7476;49.404;11.152;2022-12-05T08:04:36;14.30;;;9.10;;
14768;SDS011;7476;49.404;11.152;2022-12-05T08:07:03;14.23;;;9.57;;
14768;SDS011;7476;49.404;11.152;2022-12-05T08:09:29;15.83;;;9.17;;
14768;SDS011;7476;49.404;11.152;2022-12-05T08:11:58;17.47;;;10.07;;
14768;SDS011;7476;49.404;11.152;2022-12-05T08:14:24;15.27;;;9.33;;
14768;SDS011;7476;49.404;11.152;2022-12-05T08:16:51;15.50;;;9.57;;
14768;SDS011;7476;49.404;11.152;2022-12-05T08:19:18;19.13;;;10.50;;
14768;SDS011;7476;49.404;11.152;2022-12-05T08:21:44;18.20;;;10.80;;
14768;SDS011;7476;49.404;11.152;2022-12-05T08:24:11;15.50;;;10.47;;
14768;SDS011;7476;49.404;11.152;2022-12-05T08:26:39;18.87;;;10.40;;
14768;SDS011;7476;49.404;11.152;2022-12-05T08:29:08;16.27;;;10.17;;
14768;SDS011;7476;49.404;11.152;2022-12-05T08:31:38;17.43;;;11.03;;
14768;SDS011;7476;49.404;11.152;2022-12-05T08:34:07;18.10;;;9.83;;
14768;SDS011;7476;49.404;11.152;2022-12-05T08:36:36;18.80;;;10.60;;
14768;SDS011;7476;49.404;11.152;2022-12-05T08:39:04;18.07;;;10.87;;
14768;SDS011;7476;49.404;11.152;2022-12-05T08:41:32;17.63;;;10.60;;
14768;SDS011;7476;49.404;11.152;2022-12-05T08:44:00;15.93;;;9.73;;
14768;SDS011;7476;49.404;11.152;2022-12-05T08:46:29;14.77;;;9.60;;
14768;SDS011;7476;49.404;11.152;2022-12-05T08:48:56;17.93;;;11.20;;
14768;SDS011;7476;49.404;11.152;2022-12-05T08:51:23;17.33;;;10.17;;
14768;SDS011;7476;49.404;11.152;2022-12-05T08:53:49;15.60;;;10.10;;
14768;SDS011;7476;49.404;11.152;2022-12-05T08:56:16;16.27;;;9.77;;
14768;SDS011;7476;49.404;11.152;2022-12-05T08:58:43;16.33;;;10.03;;
14768;SDS011;7476;49.404;11.152;2022-12-05T09:01:10;16.83;;;10.73;;
14768;SDS011;7476;49.404;11.152;2022-12-05T09:03:40;20.90;;;10.90;;
14768;SDS011;7476;49.404;11.152;2022-12-05T09:06:08;16.90;;;10.53;;
14768;SDS011;7476;49.404;11.152;2022-12-05T09:08:36;16.50;;;10.13;;
14768;SDS011;7476;49.404;11.152;2022-12-05T09:11:03;19.00;;;10.53;;
14768;SDS011;7476;49.404;11.152;2022-12-05T09:13:31;20.17;;;11.37;;
14768;SDS011;7476;49.404;11.152;2022-12-05T09:15:58;21.37;;;11.80;;
14768;SDS011;7476;49.404;11.152;2022-12-05T09:18:24;19.13;;;11.30;;
14768;SDS011;7476;49.404;11.152;2022-12-05T09:20:52;20.47;;;10.97;;
14768;SDS011;7476;49.404;11.152;2022-12-05T09:23:20;19.63;;;11.97;;
14768;SDS011;7476;49.404;11.152;2022-12-05T09:25:51;21.30;;;11.93;;
14768;SDS011;7476;49.404;11.152;2022-12-05T09:28:20;21.73;;;11.93;;
14768;SDS011;7476;49.404;11.152;2022-12-05T09:30:54;20.97;;;11.80;;
14768;SDS011;7476;49.404;11.152;2022-12-05T09:33:21;22.57;;;12.67;;
14768;SDS011;7476;49.404;11.152;2022-12-05T09:35:48;18.17;;;10.87;;
14768;SDS011;7476;49.404;11.152;2022-12-05T09:38:16;20.93;;;11.33;;
14768;SDS011;7476;49.404;11.152;2022-12-05T09:40:43;19.40;;;11.93;;
14768;SDS011;7476;49.404;11.152;2022-12-05T09:43:13;18.90;;;11.03;;
14768;SDS011;7476;49.404;11.152;2022-12-05T09:45:51;17.97;;;10.93;;
14768;SDS011;7476;49.404;11.152;2022-12-05T09:48:23;17.93;;;10.23;;
14768;SDS011;7476;49.404;11.152;2022-12-05T09:50:52;20.37;;;11.23;;
14768;SDS011;7476;49.404;11.152;2022-12-05T09:53:25;16.33;;;10.17;;
14768;SDS011;7476;49.404;11.152;2022-12-05T09:55:56;18.63;;;10.43;;
14768;SDS011;7476;49.404;11.152;2022-12-05T09:58:32;16.93;;;10.27;;
14768;SDS011;7476;49.404;11.152;2022-12-05T10:01:09;15.43;;;10.33;;
14768;SDS011;7476;49.404;11.152;2022-12-05T10:03:52;16.83;;;10.17;;
14768;SDS011;7476;49.404;11.152;2022-12-05T10:06:38;16.93;;;10.23;;
14768;SDS011;7476;49.404;11.152;2022-12-05T10:09:17;15.47;;;9.77;;
14768;SDS011;7476;49.404;11.152;2022-12-05T10:11:57;18.03;;;10.73;;
14768;SDS011;7476;49.404;11.152;2022-12-05T10:14:33;17.47;;;10.43;;
14768;SDS011;7476;49.404;11.152;2022-12-05T10:17:13;14.27;;;9.53;;
14768;SDS011;7476;49.404;11.152;2022-12-05T10:19:48;14.60;;;9.20;;
14768;SDS011;7476;49.404;11.152;2022-12-05T10:22:21;15.53;;;9.40;;
14768;SDS011;7476;49.404;11.152;2022-12-05T10:24:53;15.47;;;9.67;;
14768;SDS011;7476;49.404;11.152;2022-12-05T10:27:23;14.63;;;9.47;;
14768;SDS011;7476;49.404;11.152;2022-12-05T10:29:56;15.37;;;9.83;;
14768;SDS011;7476;49.404;11.152;2022-12-05T10:32:27;17.17;;;10.63;;
14768;SDS011;7476;49.404;11.152;2022-12-05T10:34:59;14.43;;;9.33;;
14768;SDS011;7476;49.404;11.152;2022-12-05T10:37:39;13.27;;;9.17;;
14768;SDS011;7476;49.404;11.152;2022-12-05T10:42:39;13.00;;;8.93;;
14768;SDS011;7476;49.404;11.152;2022-12-05T10:45:12;13.43;;;9.20;;
14768;SDS011;7476;49.404;11.152;2022-12-05T10:47:40;13.60;;;8.67;;
14768;SDS011;7476;49.404;11.152;2022-12-05T10:50:19;12.47;;;8.60;;
14768;SDS011;7476;49.404;11.152;2022-12-05T10:52:49;14.33;;;8.80;;
14768;SDS011;7476;49.404;11.152;2022-12-05T10:55:19;13.47;;;8.97;;
14768;SDS011;7476;49.404;11.152;2022-12-05T10:57:48;12.77;;;8.43;;
14768;SDS011;7476;49.404;11.152;2022-12-05T11:00:19;14.60;;;8.57;;
14768;SDS011;7476;49.404;11.152;2022-12-05T11:02:47;14.50;;;9.20;;
14768;SDS011;7476;49.404;11.152;2022-12-05T11:05:16;14.17;;;8.63;;
14768;SDS011;7476;49.404;11.152;2022-12-05T11:07:53;13.23;;;8.60;;
14768;SDS011;7476;49.404;11.152;2022-12-05T11:10:24;13.83;;;9.03;;
14768;SDS011;7476;49.404;11.152;2022-12-05T11:12:53;12.83;;;8.23;;
14768;SDS011;7476;49.404;11.152;2022-12-05T11:15:22;15.70;;;8.80;;
14768;SDS011;7476;49.404;11.152;2022-12-05T11:17:52;14.10;;;9.63;;
14768;SDS011;7476;49.404;11.152;2022-12-05T11:20:33;14.43;;;10.10;;
14768;SDS011;7476;49.404;11.152;2022-12-05T11:23:15;14.07;;;9.17;;
14768;SDS011;7476;49.404;11.152;2022-12-05T11:25:51;13.57;;;9.40;;
14768;SDS011;7476;49.404;11.152;2022-12-05T11:28:22;13.00;;;8.63;;
14768;SDS011;7476;49.404;11.152;2022-12-05T11:30:57;15.60;;;9.10;;
14768;SDS011;7476;49.404;11.152;2022-12-05T11:33:25;13.40;;;9.07;;
14768;SDS011;7476;49.404;11.152;2022-12-05T11:35:53;14.47;;;10.03;;
14768;SDS011;7476;49.404;11.152;2022-12-05T11:38:25;15.03;;;9.00;;
14768;SDS011;7476;49.404;11.152;2022-12-05T11:40:57;13.73;;;9.00;;
14768;SDS011;7476;49.404;11.152;2022-12-05T11:43:48;13.07;;;8.73;;
14768;SDS011;7476;49.404;11.152;2022-12-05T11:46:33;14.33;;;9.27;;
14768;SDS011;7476;49.404;11.152;2022-12-05T11:49:11;14.53;;;9.37;;
14768;SDS011;7476;49.404;11.152;2022-12-05T11:52:00;13.90;;;9.17;;
14768;SDS011;7476;49.404;11.152;2022-12-05T11:54:49;14.30;;;9.03;;
14768;SDS011;7476;49.404;11.152;2022-12-05T11:57:25;13.47;;;9.10;;
14768;SDS011;7476;49.404;11.152;2022-12-05T12:00:05;12.93;;;8.77;;
14768;SDS011;7476;49.404;11.152;2022-12-05T12:02:47;15.27;;;9.60;;
14768;SDS011;7476;49.404;11.152;2022-12-05T12:05:37;14.17;;;9.30;;
14768;SDS011;7476;49.404;11.152;2022-12-05T12:08:09;16.00;;;9.70;;
14768;SDS011;7476;49.404;11.152;2022-12-05T12:10:46;12.73;;;8.53;;
14768;SDS011;7476;49.404;11.152;2022-12-05T12:13:25;12.37;;;8.30;;
14768;SDS011;7476;49.404;11.152;2022-12-05T12:16:09;13.93;;;9.63;;
14768;SDS011;7476;49.404;11.152;2022-12-05T12:18:51;12.27;;;9.17;;
14768;SDS011;7476;49.404;11.152;2022-12-05T12:21:37;14.83;;;9.77;;
14768;SDS011;7476;49.404;11.152;2022-12-05T12:24:15;15.33;;;10.10;;
14768;SDS011;7476;49.404;11.152;2022-12-05T12:26:54;15.93;;;9.73;;
14768;SDS011;7476;49.404;11.152;2022-12-05T12:29:31;13.83;;;9.03;;
14768;SDS011;7476;49.404;11.152;2022-12-05T12:32:10;13.77;;;9.27;;
14768;SDS011;7476;49.404;11.152;2022-12-05T12:34:49;14.07;;;9.13;;
14768;SDS011;7476;49.404;11.152;2022-12-05T12:37:29;13.93;;;9.63;;
14768;SDS011;7476;49.404;11.152;2022-12-05T12:40:11;13.47;;;9.13;;
14768;SDS011;7476;49.404;11.152;2022-12-05T12:42:42;14.93;;;9.50;;
14768;SDS011;7476;49.404;11.152;2022-12-05T12:45:28;15.00;;;9.40;;
14768;SDS011;7476;49.404;11.152;2022-12-05T12:48:11;15.60;;;9.70;;
14768;SDS011;7476;49.404;11.152;2022-12-05T12:50:50;12.73;;;8.53;;
14768;SDS011;7476;49.404;11.152;2022-12-05T12:56:10;13.13;;;8.70;;
14768;SDS011;7476;49.404;11.152;2022-12-05T12:58:46;14.20;;;9.03;;
14768;SDS011;7476;49.404;11.152;2022-12-05T13:01:21;12.87;;;8.93;;
14768;SDS011;7476;49.404;11.152;2022-12-05T13:03:56;14.10;;;9.37;;
14768;SDS011;7476;49.404;11.152;2022-12-05T13:06:28;12.27;;;8.50;;
14768;SDS011;7476;49.404;11.152;2022-12-05T13:09:00;13.40;;;8.83;;
14768;SDS011;7476;49.404;11.152;2022-12-05T13:11:32;12.67;;;8.73;;
14768;SDS011;7476;49.404;11.152;2022-12-05T13:14:02;12.77;;;8.67;;
14768;SDS011;7476;49.404;11.152;2022-12-05T13:16:38;14.30;;;9.73;;
14768;SDS011;7476;49.404;11.152;2022-12-05T13:19:09;12.70;;;9.03;;
14768;SDS011;7476;49.404;11.152;2022-12-05T13:21:45;12.80;;;9.43;;
14768;SDS011;7476;49.404;11.152;2022-12-05T13:24:12;13.53;;;8.93;;
14768;SDS011;7476;49.404;11.152;2022-12-05T13:26:43;12.50;;;8.47;;
14768;SDS011;7476;49.404;11.152;2022-12-05T13:29:16;13.30;;;9.50;;
14768;SDS011;7476;49.404;11.152;2022-12-05T13:31:47;13.47;;;8.87;;
14768;SDS011;7476;49.404;11.152;2022-12-05T13:34:32;13.80;;;9.80;;
14768;SDS011;7476;49.404;11.152;2022-12-05T13:37:10;13.10;;;9.07;;
14768;SDS011;7476;49.404;11.152;2022-12-05T13:40:00;13.87;;;9.70;;
14768;SDS011;7476;49.404;11.152;2022-12-05T13:42:45;14.33;;;9.53;;
14768;SDS011;7476;49.404;11.152;2022-12-05T13:45:14;14.50;;;9.60;;
14768;SDS011;7476;49.404;11.152;2022-12-05T13:47:48;15.07;;;9.57;;
14768;SDS011;7476;49.404;11.152;2022-12-05T13:50:22;12.77;;;8.80;;
14768;SDS011;7476;49.404;11.152;2022-12-05T13:52:55;12.93;;;8.80;;
14768;SDS011;7476;49.404;11.152;2022-12-05T13:55:26;14.47;;;8.87;;
14768;SDS011;7476;49.404;11.152;2022-12-05T13:57:55;13.60;;;9.33;;
14768;SDS011;7476;49.404;11.152;2022-12-05T14:00:30;14.60;;;9.43;;
14768;SDS011;7476;49.404;11.152;2022-12-05T14:03:00;12.67;;;9.23;;
14768;SDS011;7476;49.404;11.152;2022-12-05T14:05:37;11.60;;;8.63;;
14768;SDS011;7476;49.404;11.152;2022-12-05T14:11:11;14.73;;;9.13;;
14768;SDS011;7476;49.404;11.152;2022-12-05T14:13:39;14.77;;;9.43;;
14768;SDS011;7476;49.404;11.152;2022-12-05T14:19:15;15.30;;;9.83;;
14768;SDS011;7476;49.404;11.152;2022-12-05T14:22:04;13.47;;;9.00;;
14768;SDS011;7476;49.404;11.152;2022-12-05T14:24:52;14.50;;;9.77;;
14768;SDS011;7476;49.404;11.152;2022-12-05T14:27:28;14.63;;;9.43;;
14768;SDS011;7476;49.404;11.152;2022-12-05T14:30:16;13.87;;;9.33;;
14768;SDS011;7476;49.404;11.152;2022-12-05T14:32:47;15.40;;;8.90;;
14768;SDS011;7476;49.404;11.152;2022-12-05T14:35:20;13.60;;;9.17;;
14768;SDS011;7476;49.404;11.152;2022-12-05T14:37:53;17.43;;;10.17;;
14768;SDS011;7476;49.404;11.152;2022-12-05T14:40:23;14.57;;;9.63;;
14768;SDS011;7476;49.404;11.152;2022-12-05T14:42:55;16.60;;;9.93;;
14768;SDS011;7476;49.404;11.152;2022-12-05T14:45:28;14.90;;;9.23;;
14768;SDS011;7476;49.404;11.152;2022-12-05T14:47:58;14.60;;;10.53;;
14768;SDS011;7476;49.404;11.152;2022-12-05T14:50:35;14.27;;;9.63;;
14768;SDS011;7476;49.404;11.152;2022-12-05T14:56:04;16.63;;;10.33;;
14768;SDS011;7476;49.404;11.152;2022-12-05T14:58:40;17.10;;;10.20;;
14768;SDS011;7476;49.404;11.152;2022-12-05T15:01:13;14.50;;;9.93;;
14768;SDS011;7476;49.404;11.152;2022-12-05T15:03:46;16.87;;;10.10;;
14768;SDS011;7476;49.404;11.152;2022-12-05T15:06:26;14.63;;;9.80;;
14768;SDS011;7476;49.404;11.152;2022-12-05T15:08:55;16.00;;;10.13;;
14768;SDS011;7476;49.404;11.152;2022-12-05T15:11:23;15.53;;;10.67;;
14768;SDS011;7476;49.404;11.152;2022-12-05T15:13:54;18.60;;;10.13;;
14768;SDS011;7476;49.404;11.152;2022-12-05T15:16:25;15.83;;;9.83;;